Time;durP1;ratioP1;P1;durP2;ratioP2;P2;SDS_P1;SDS_P2;PMS_P1;PMS_P2;Temp;Humidity;BMP_temperature;BMP_pressure;BME280_temperature;BME280_humidity;BME280_pressure;Samples;Min_cycle;Max_cycle;Signal;HPM_P1;HPM_P2
2022/03/04 00:00:59;;;;;;;28.00;16.53;;;2.10;99.90;;;;;;5071792;28;20819;-68
2022/03/04 00:03:28;;;;;;;28.03;16.00;;;2.00;99.90;;;;;;5066795;28;20497;-67
2022/03/04 00:05:56;;;;;;;31.10;17.13;;;2.40;99.90;;;;;;5065483;28;20486;-67
2022/03/04 00:08:24;;;;;;;30.37;17.27;;;2.30;99.90;;;;;;5071148;28;20466;-68
2022/03/04 00:10:52;;;;;;;31.53;18.90;;;2.30;99.90;;;;;;5071166;28;20821;-68
2022/03/04 00:13:21;;;;;;;27.33;17.00;;;2.20;99.90;;;;;;5068468;28;20528;-67
2022/03/04 00:15:50;;;;;;;30.57;18.17;;;2.20;99.90;;;;;;5071054;28;20483;-67
2022/03/04 00:18:19;;;;;;;29.80;18.33;;;2.30;99.90;;;;;;5070748;28;20497;-67
2022/03/04 00:20:47;;;;;;;35.03;19.47;;;2.30;99.90;;;;;;5070958;28;20467;-67
2022/03/04 00:23:15;;;;;;;32.17;19.93;;;2.30;99.90;;;;;;5064388;28;20877;-67
2022/03/04 00:25:43;;;;;;;28.87;15.90;;;2.10;99.90;;;;;;5063351;28;20472;-67
2022/03/04 00:28:11;;;;;;;31.20;18.43;;;2.30;99.90;;;;;;5070500;28;20479;-67
2022/03/04 00:30:39;;;;;;;28.00;17.13;;;2.20;99.90;;;;;;5069633;28;20517;-68
2022/03/04 00:33:09;;;;;;;30.50;17.53;;;2.20;99.90;;;;;;5067785;28;20493;-67
2022/03/04 00:35:37;;;;;;;33.30;19.80;;;2.30;99.90;;;;;;5070905;28;20471;-67
2022/03/04 00:38:05;;;;;;;23.77;15.40;;;2.10;99.90;;;;;;5070710;28;21069;-67
2022/03/04 00:40:34;;;;;;;25.03;17.10;;;2.20;99.90;;;;;;5070769;28;20977;-65
2022/03/04 00:43:02;;;;;;;26.73;16.87;;;2.10;99.90;;;;;;5070663;28;20463;-67
2022/03/04 00:45:30;;;;;;;29.50;18.03;;;2.30;99.90;;;;;;5058714;28;20469;-67
2022/03/04 00:47:58;;;;;;;24.97;16.50;;;2.30;99.90;;;;;;5080450;28;20451;-67
2022/03/04 00:50:27;;;;;;;25.87;16.73;;;2.40;99.90;;;;;;5091047;28;20456;-67
2022/03/04 00:52:58;;;;;;;28.93;17.17;;;2.50;99.90;;;;;;5071349;28;20467;-67
2022/03/04 00:55:26;;;;;;;26.87;16.70;;;2.50;99.90;;;;;;5050632;28;20538;-68
2022/03/04 00:57:54;;;;;;;26.67;16.53;;;2.20;99.90;;;;;;5039252;28;20495;-67
2022/03/04 01:00:22;;;;;;;23.53;15.67;;;2.00;99.90;;;;;;5030706;28;20500;-67
2022/03/04 01:02:50;;;;;;;26.67;16.97;;;2.00;99.90;;;;;;5037588;28;20475;-67
2022/03/04 01:05:18;;;;;;;26.40;16.60;;;2.10;99.90;;;;;;5042273;28;20820;-67
2022/03/04 01:07:48;;;;;;;26.70;17.13;;;2.10;99.90;;;;;;5050357;28;20472;-67
2022/03/04 01:10:16;;;;;;;25.63;16.33;;;2.20;99.90;;;;;;5050743;28;20570;-67
2022/03/04 01:12:45;;;;;;;29.03;17.37;;;2.00;99.90;;;;;;5046812;28;20542;-67
2022/03/04 01:15:15;;;;;;;23.63;14.87;;;1.70;99.90;;;;;;5050503;28;20487;-67
2022/03/04 01:17:43;;;;;;;25.80;17.03;;;1.80;99.90;;;;;;5050302;28;20470;-67
2022/03/04 01:20:11;;;;;;;27.90;17.47;;;1.40;99.90;;;;;;5050437;28;20572;-67
2022/03/04 01:22:40;;;;;;;25.87;15.23;;;1.30;99.90;;;;;;5049696;28;20497;-67
2022/03/04 01:25:10;;;;;;;27.13;18.20;;;1.20;99.90;;;;;;5042041;28;20837;-67
2022/03/04 01:27:38;;;;;;;28.50;18.23;;;1.10;99.90;;;;;;5050269;28;20840;-67
2022/03/04 01:30:10;;;;;;;28.17;18.07;;;1.20;99.90;;;;;;5050564;28;20466;-67
2022/03/04 01:32:38;;;;;;;26.00;16.27;;;1.30;99.90;;;;;;5049827;28;20475;-67
2022/03/04 01:35:06;;;;;;;28.17;16.87;;;1.60;99.90;;;;;;5050191;28;20458;-67
2022/03/04 01:37:35;;;;;;;26.23;17.43;;;1.50;99.90;;;;;;5050262;28;20542;-65
2022/03/04 01:40:04;;;;;;;24.93;17.07;;;1.30;99.90;;;;;;5050717;28;20543;-67
2022/03/04 01:42:33;;;;;;;25.70;15.53;;;1.20;99.90;;;;;;5048570;28;20472;-67
2022/03/04 01:45:02;;;;;;;24.67;16.03;;;1.10;99.90;;;;;;5041860;28;20470;-67
2022/03/04 01:47:31;;;;;;;25.53;16.00;;;1.10;99.90;;;;;;5041814;28;21079;-67
2022/03/04 01:49:59;;;;;;;21.63;14.50;;;1.00;99.90;;;;;;5030398;28;20915;-68
2022/03/04 01:52:27;;;;;;;23.97;15.47;;;1.00;99.90;;;;;;5033966;28;20899;-67
2022/03/04 01:54:56;;;;;;;24.07;15.40;;;1.00;99.90;;;;;;5053726;28;20939;-68
2022/03/04 01:57:24;;;;;;;31.00;15.83;;;1.00;99.90;;;;;;5053452;28;20827;-67
2022/03/04 01:59:54;;;;;;;30.63;15.80;;;1.00;99.90;;;;;;5053785;28;20467;-67
2022/03/04 02:02:22;;;;;;;23.67;15.63;;;0.90;99.90;;;;;;5052904;28;20527;-67
2022/03/04 02:04:51;;;;;;;25.93;16.83;;;0.90;99.90;;;;;;5045066;28;20859;-67
2022/03/04 02:07:19;;;;;;;23.83;14.90;;;0.90;99.90;;;;;;5053319;28;20503;-68
2022/03/04 02:09:47;;;;;;;26.17;15.60;;;0.90;99.90;;;;;;5053607;28;20528;-67
2022/03/04 02:12:15;;;;;;;23.20;14.33;;;0.90;99.90;;;;;;5048315;28;21019;-67
2022/03/04 02:14:44;;;;;;;26.70;16.80;;;1.00;99.90;;;;;;5053439;28;20468;-67
2022/03/04 02:17:13;;;;;;;26.13;16.23;;;1.00;99.90;;;;;;5053239;28;20474;-67
2022/03/04 02:19:41;;;;;;;24.93;15.83;;;1.00;99.90;;;;;;5053324;28;20548;-67
2022/03/04 02:22:11;;;;;;;23.80;14.37;;;1.00;99.90;;;;;;5047484;28;20467;-67
2022/03/04 02:24:39;;;;;;;25.17;14.83;;;1.40;99.90;;;;;;5033175;28;20487;-66
2022/03/04 02:27:08;;;;;;;32.23;19.10;;;1.70;99.90;;;;;;5033158;28;20836;-67
2022/03/04 02:29:36;;;;;;;27.47;18.03;;;1.60;99.90;;;;;;5032934;28;20467;-67
2022/03/04 02:32:05;;;;;;;30.47;18.93;;;1.30;99.90;;;;;;5045783;28;20987;-63
2022/03/04 02:34:33;;;;;;;32.67;18.80;;;1.20;99.90;;;;;;5044973;28;20474;-67
2022/03/04 02:37:01;;;;;;;28.23;17.57;;;1.30;99.90;;;;;;5048821;28;20471;-66
2022/03/04 02:39:31;;;;;;;24.27;15.40;;;1.30;99.90;;;;;;5033092;28;20867;-67
2022/03/04 02:41:59;;;;;;;28.33;17.60;;;1.40;99.90;;;;;;5045039;28;20467;-67
2022/03/04 02:44:27;;;;;;;29.77;17.83;;;1.60;99.90;;;;;;5052920;28;20804;-67
2022/03/04 02:46:56;;;;;;;31.70;17.00;;;1.50;99.90;;;;;;5052501;28;20535;-67
2022/03/04 02:49:24;;;;;;;28.30;17.30;;;2.10;99.90;;;;;;5052709;28;20478;-67
2022/03/04 02:51:52;;;;;;;29.40;16.53;;;1.90;99.90;;;;;;5052336;28;20470;-67
2022/03/04 02:54:21;;;;;;;33.50;19.27;;;2.10;99.90;;;;;;5044262;28;20489;-68
2022/03/04 02:56:50;;;;;;;35.03;20.27;;;2.00;99.90;;;;;;5052161;28;20486;-68
2022/03/04 02:59:18;;;;;;;25.87;15.30;;;1.70;99.90;;;;;;5032489;28;20477;-68
2022/03/04 03:01:46;;;;;;;30.47;19.17;;;1.70;99.90;;;;;;5036852;28;20882;-67
2022/03/04 03:04:15;;;;;;;41.43;19.73;;;1.70;99.90;;;;;;5052130;28;20472;-67
2022/03/04 03:06:43;;;;;;;31.90;18.67;;;1.50;99.90;;;;;;5052251;28;20476;-68
2022/03/04 03:09:11;;;;;;;22.40;13.50;;;1.50;99.90;;;;;;5052086;28;21062;-67
2022/03/04 03:11:40;;;;;;;28.63;17.73;;;1.70;99.90;;;;;;5050924;28;21013;-68
2022/03/04 03:14:10;;;;;;;34.57;17.67;;;1.60;99.90;;;;;;5032323;28;20526;-68
2022/03/04 03:16:39;;;;;;;25.27;14.27;;;1.50;99.90;;;;;;5032073;28;21094;-65
2022/03/04 03:19:08;;;;;;;30.67;18.50;;;1.70;99.90;;;;;;5045668;28;20466;-67
2022/03/04 03:21:36;;;;;;;31.13;17.63;;;1.70;99.90;;;;;;5043156;28;20472;-67
2022/03/04 03:24:05;;;;;;;27.33;17.20;;;1.60;99.90;;;;;;5052106;28;20464;-63
2022/03/04 03:26:33;;;;;;;28.00;17.63;;;1.50;99.90;;;;;;5052081;28;20473;-67
2022/03/04 03:29:01;;;;;;;34.33;18.53;;;1.50;99.90;;;;;;5044483;28;20458;-68
2022/03/04 03:31:31;;;;;;;28.20;17.50;;;1.50;99.90;;;;;;5052242;28;20498;-68
2022/03/04 03:33:59;;;;;;;34.47;18.43;;;1.50;99.90;;;;;;5031833;28;20471;-66
2022/03/04 03:36:27;;;;;;;30.27;16.43;;;1.50;99.90;;;;;;5032052;28;20563;-67
2022/03/04 03:38:55;;;;;;;24.97;16.33;;;1.50;99.90;;;;;;5032000;28;20468;-68
2022/03/04 03:41:24;;;;;;;26.57;15.87;;;1.30;99.90;;;;;;5045197;28;20472;-68
2022/03/04 03:43:53;;;;;;;24.60;16.03;;;1.30;99.90;;;;;;5045233;28;20494;-67
2022/03/04 03:46:21;;;;;;;21.87;13.93;;;1.90;99.90;;;;;;5051678;28;20886;-68
2022/03/04 03:48:50;;;;;;;31.87;19.17;;;1.80;99.90;;;;;;5051171;28;21015;-68
2022/03/04 03:51:19;;;;;;;31.83;18.90;;;2.00;99.90;;;;;;5051410;28;20486;-66
2022/03/04 03:53:47;;;;;;;30.20;18.67;;;1.90;99.90;;;;;;5051093;28;20514;-67
2022/03/04 03:56:15;;;;;;;31.13;17.90;;;1.90;99.90;;;;;;5051623;28;20485;-68
2022/03/04 03:58:43;;;;;;;27.07;17.23;;;1.60;99.90;;;;;;5032905;28;20485;-68
2022/03/04 04:01:11;;;;;;;29.73;16.53;;;1.50;99.90;;;;;;5031399;28;20473;-68
2022/03/04 04:03:39;;;;;;;28.23;17.33;;;1.60;99.90;;;;;;5044905;28;20895;-68
2022/03/04 04:06:09;;;;;;;25.70;15.53;;;1.50;99.90;;;;;;5047166;28;20579;-68
2022/03/04 04:08:37;;;;;;;28.60;17.27;;;1.70;99.90;;;;;;5034094;28;20468;-68
2022/03/04 04:11:05;;;;;;;27.13;17.90;;;1.70;99.90;;;;;;5047919;28;20541;-65
2022/03/04 04:13:34;;;;;;;27.47;17.37;;;1.60;99.90;;;;;;5034676;28;20470;-67
2022/03/04 04:16:02;;;;;;;23.70;15.00;;;1.80;99.90;;;;;;5030859;28;20559;-66
2022/03/04 04:18:30;;;;;;;27.20;18.00;;;2.00;99.90;;;;;;5047397;28;20489;-68
2022/03/04 04:20:59;;;;;;;26.30;16.07;;;2.30;99.90;;;;;;5050927;28;20495;-68
2022/03/04 04:23:29;;;;;;;29.93;18.00;;;2.40;99.90;;;;;;5035112;28;20460;-68
2022/03/04 04:25:57;;;;;;;27.70;16.63;;;2.60;99.90;;;;;;5031112;28;20460;-68
2022/03/04 04:28:26;;;;;;;21.83;13.77;;;2.30;99.90;;;;;;5036544;28;20527;-68
2022/03/04 04:30:54;;;;;;;28.10;15.53;;;2.20;99.90;;;;;;5036965;28;20890;-68
2022/03/04 04:33:22;;;;;;;30.83;17.80;;;2.40;99.90;;;;;;5046151;28;20514;-68
2022/03/04 04:35:52;;;;;;;28.00;17.27;;;2.40;99.90;;;;;;5050908;28;20558;-68
2022/03/04 04:38:21;;;;;;;31.83;18.43;;;2.30;99.90;;;;;;5050696;28;21048;-68
2022/03/04 04:40:50;;;;;;;31.50;18.97;;;2.40;99.90;;;;;;5050851;28;20456;-68
2022/03/04 04:43:18;;;;;;;26.93;17.57;;;2.00;99.90;;;;;;5046751;28;20890;-68
2022/03/04 04:45:46;;;;;;;27.80;17.37;;;2.10;99.90;;;;;;5047574;28;20999;-67
2022/03/04 04:48:15;;;;;;;23.00;14.77;;;2.10;99.90;;;;;;5043737;28;20868;-68
2022/03/04 04:50:43;;;;;;;26.07;16.83;;;2.20;99.90;;;;;;5046976;28;20880;-68
2022/03/04 04:53:11;;;;;;;26.33;17.77;;;1.90;99.90;;;;;;5050048;28;20464;-67
2022/03/04 04:55:40;;;;;;;25.03;16.40;;;1.70;99.90;;;;;;5050093;28;20496;-68
2022/03/04 04:58:10;;;;;;;27.83;16.20;;;1.60;99.90;;;;;;5049038;28;20486;-68
2022/03/04 05:00:38;;;;;;;25.47;15.80;;;1.70;99.90;;;;;;5050164;28;20490;-68
2022/03/04 05:03:06;;;;;;;25.13;15.97;;;1.60;99.90;;;;;;5049305;28;20463;-68
2022/03/04 05:05:35;;;;;;;22.20;15.40;;;1.60;99.90;;;;;;5050349;28;20475;-68
2022/03/04 05:08:04;;;;;;;23.07;14.83;;;1.60;99.90;;;;;;5045829;28;20975;-68
2022/03/04 05:10:32;;;;;;;23.27;14.47;;;1.50;99.90;;;;;;5046098;28;20501;-68
2022/03/04 05:13:00;;;;;;;26.13;17.43;;;1.60;99.90;;;;;;5048786;28;20463;-68
2022/03/04 05:15:29;;;;;;;26.70;16.83;;;1.70;99.90;;;;;;5049520;28;20467;-68
2022/03/04 05:17:57;;;;;;;23.33;14.90;;;1.60;99.90;;;;;;5048334;28;20471;-68
2022/03/04 05:20:26;;;;;;;29.17;17.17;;;1.60;99.90;;;;;;5050073;28;20521;-67
2022/03/04 05:22:54;;;;;;;22.47;15.37;;;1.70;99.90;;;;;;5046616;28;20486;-68
2022/03/04 05:25:22;;;;;;;23.27;15.50;;;1.60;99.90;;;;;;5050362;28;20891;-68
2022/03/04 05:27:50;;;;;;;23.20;14.47;;;1.80;99.90;;;;;;5050935;28;20472;-68
2022/03/04 05:30:18;;;;;;;27.97;15.40;;;2.30;99.90;;;;;;5054242;28;20468;-68
2022/03/04 05:32:48;;;;;;;30.27;16.97;;;2.40;99.90;;;;;;5049131;28;20475;-68
2022/03/04 05:35:16;;;;;;;32.40;19.83;;;2.40;99.90;;;;;;5042409;28;21060;-68
2022/03/04 05:37:45;;;;;;;32.60;19.00;;;2.40;99.90;;;;;;5046676;28;20482;-68
2022/03/04 05:40:13;;;;;;;25.30;15.97;;;2.10;99.90;;;;;;5053652;28;20496;-67
2022/03/04 05:42:41;;;;;;;25.83;16.53;;;1.90;99.90;;;;;;5044297;28;20477;-67
2022/03/04 05:45:10;;;;;;;25.17;15.50;;;1.90;99.90;;;;;;5033855;28;20988;-68
2022/03/04 05:47:38;;;;;;;30.30;17.00;;;1.70;99.90;;;;;;5042959;28;20529;-68
2022/03/04 05:50:10;;;;;;;28.73;16.03;;;1.60;99.90;;;;;;5052198;28;20470;-67
2022/03/04 05:52:38;;;;;;;28.03;16.57;;;1.50;99.90;;;;;;5044018;28;20467;-66
2022/03/04 05:55:07;;;;;;;26.33;16.20;;;1.80;99.90;;;;;;5049165;28;20459;-67
2022/03/04 05:57:35;;;;;;;23.87;16.03;;;1.60;99.90;;;;;;5045888;28;20507;-65
2022/03/04 06:00:04;;;;;;;24.77;14.33;;;1.50;99.90;;;;;;5040909;28;20554;-68
2022/03/04 06:02:32;;;;;;;21.80;14.87;;;1.50;99.90;;;;;;5053439;28;20815;-68
2022/03/04 06:05:01;;;;;;;25.80;15.80;;;1.50;99.90;;;;;;5053875;28;20459;-68
2022/03/04 06:07:33;;;;;;;23.40;15.17;;;1.40;99.90;;;;;;5045559;28;20512;-68
2022/03/04 06:10:02;;;;;;;25.70;14.37;;;1.40;99.90;;;;;;5033938;28;20994;-68
2022/03/04 06:12:30;;;;;;;23.53;15.20;;;1.40;99.90;;;;;;5048386;28;20459;-68
2022/03/04 06:14:58;;;;;;;23.23;14.77;;;1.40;99.90;;;;;;5052899;28;20515;-68
2022/03/04 06:17:26;;;;;;;24.53;14.93;;;1.40;99.90;;;;;;5053023;28;20459;-68
2022/03/04 06:19:54;;;;;;;22.47;14.63;;;1.30;99.90;;;;;;5053052;28;20479;-68
2022/03/04 06:22:22;;;;;;;24.80;15.17;;;1.60;99.90;;;;;;5042510;28;20879;-68
2022/03/04 06:24:52;;;;;;;20.70;13.73;;;1.40;99.90;;;;;;5036369;28;20516;-65
2022/03/04 06:27:20;;;;;;;23.97;14.97;;;1.40;99.90;;;;;;5047160;28;20510;-67
2022/03/04 06:29:48;;;;;;;23.53;14.67;;;1.30;99.90;;;;;;5052865;28;20476;-68
2022/03/04 06:32:16;;;;;;;20.80;13.23;;;1.30;99.90;;;;;;5044581;28;20551;-68
2022/03/04 06:34:44;;;;;;;22.93;13.97;;;1.30;99.90;;;;;;5050118;28;20488;-66
2022/03/04 06:37:12;;;;;;;23.63;14.03;;;1.30;99.90;;;;;;5040549;28;20472;-66
2022/03/04 06:39:41;;;;;;;22.83;15.13;;;1.30;99.90;;;;;;5038206;28;20558;-68
2022/03/04 06:42:10;;;;;;;22.57;13.97;;;1.30;99.90;;;;;;5040043;28;20479;-65
2022/03/04 06:44:38;;;;;;;23.17;14.83;;;1.30;99.90;;;;;;5037085;28;20482;-68
2022/03/04 06:47:07;;;;;;;24.60;15.23;;;1.30;99.90;;;;;;5047542;28;20890;-68
2022/03/04 06:49:35;;;;;;;23.97;14.37;;;1.30;99.90;;;;;;5044705;28;20550;-68
2022/03/04 06:52:04;;;;;;;22.97;14.00;;;1.40;99.90;;;;;;5048148;28;20491;-67
2022/03/04 06:54:33;;;;;;;23.63;14.77;;;1.40;99.90;;;;;;5043492;28;20867;-67
2022/03/04 06:57:01;;;;;;;24.60;15.30;;;1.30;99.90;;;;;;5049857;28;20475;-68
2022/03/04 06:59:31;;;;;;;24.03;14.63;;;1.30;99.90;;;;;;5044006;28;20471;-68
2022/03/04 07:01:59;;;;;;;22.03;14.07;;;1.30;99.90;;;;;;5052116;28;20822;-68
2022/03/04 07:04:28;;;;;;;22.37;13.73;;;1.20;99.90;;;;;;5052161;28;20466;-68
2022/03/04 07:06:56;;;;;;;21.23;13.43;;;1.20;99.90;;;;;;5052364;28;20796;-68
2022/03/04 07:09:24;;;;;;;23.23;14.50;;;1.20;99.90;;;;;;5048367;28;20480;-68
2022/03/04 07:11:54;;;;;;;25.60;15.87;;;1.20;99.90;;;;;;5049035;28;20500;-68
2022/03/04 07:14:22;;;;;;;23.50;15.07;;;1.30;99.90;;;;;;5032406;28;21019;-68
2022/03/04 07:16:51;;;;;;;24.30;14.90;;;1.30;99.90;;;;;;5045185;28;20524;-67
2022/03/04 07:19:19;;;;;;;25.37;15.27;;;1.40;99.90;;;;;;5051397;28;20471;-68
2022/03/04 07:21:47;;;;;;;22.90;14.97;;;1.30;99.90;;;;;;5051390;28;20469;-68
2022/03/04 07:24:16;;;;;;;24.40;14.50;;;1.30;99.90;;;;;;5051305;28;20500;-68
2022/03/04 07:26:44;;;;;;;28.50;13.97;;;1.20;99.90;;;;;;5048970;28;20475;-68
2022/03/04 07:29:12;;;;;;;24.53;14.30;;;1.20;99.90;;;;;;5050736;28;20893;-67
2022/03/04 07:31:40;;;;;;;23.63;14.00;;;1.20;99.90;;;;;;5051626;28;20463;-67
2022/03/04 07:34:09;;;;;;;23.80;14.23;;;1.20;99.90;;;;;;5044080;28;21046;-68
2022/03/04 07:36:38;;;;;;;22.50;13.40;;;1.10;99.90;;;;;;5049425;28;20490;-67
2022/03/04 07:39:06;;;;;;;23.50;13.97;;;1.10;99.90;;;;;;5047363;28;20955;-64
2022/03/04 07:41:34;;;;;;;23.37;13.90;;;1.10;99.90;;;;;;5051453;28;20447;-67
2022/03/04 07:44:03;;;;;;;22.93;13.33;;;1.20;99.90;;;;;;5046470;28;20470;-66
2022/03/04 07:46:32;;;;;;;26.63;15.20;;;1.30;99.90;;;;;;5050331;28;20467;-67
2022/03/04 07:49:00;;;;;;;28.10;16.13;;;1.30;99.90;;;;;;5045793;28;20463;-67
2022/03/04 07:51:29;;;;;;;31.63;17.40;;;1.20;99.90;;;;;;5046929;28;20478;-67
2022/03/04 07:53:58;;;;;;;36.47;17.80;;;1.20;99.90;;;;;;5048710;28;21004;-66
2022/03/04 07:56:26;;;;;;;38.73;18.47;;;1.30;99.90;;;;;;5049256;28;20443;-67
2022/03/04 07:58:54;;;;;;;34.97;17.10;;;1.30;99.90;;;;;;5049572;28;20530;-67
2022/03/04 08:01:22;;;;;;;32.53;16.37;;;1.30;99.90;;;;;;5048639;28;20477;-67
2022/03/04 08:03:50;;;;;;;38.03;19.37;;;1.40;99.90;;;;;;5049856;28;20470;-67
2022/03/04 08:06:19;;;;;;;38.87;19.30;;;1.40;99.90;;;;;;5049724;28;20525;-67
2022/03/04 08:08:48;;;;;;;41.87;20.10;;;1.40;99.90;;;;;;5049444;28;20511;-67
2022/03/04 08:11:16;;;;;;;40.97;18.40;;;1.30;99.90;;;;;;5047232;28;20475;-66
2022/03/04 08:13:44;;;;;;;44.07;20.03;;;1.30;99.90;;;;;;5048646;28;20944;-67
2022/03/04 08:16:12;;;;;;;40.07;18.90;;;1.40;99.90;;;;;;5047920;28;20477;-64
2022/03/04 08:18:41;;;;;;;40.33;19.83;;;1.40;99.90;;;;;;5047513;28;20475;-67
2022/03/04 08:21:11;;;;;;;42.90;19.80;;;1.40;99.90;;;;;;5049972;28;21022;-67
2022/03/04 08:23:40;;;;;;;42.23;18.83;;;1.40;99.90;;;;;;5049985;28;20494;-67
2022/03/04 08:26:09;;;;;;;41.73;18.87;;;1.40;99.90;;;;;;5050254;28;20478;-67
2022/03/04 08:28:37;;;;;;;46.80;20.73;;;1.30;99.90;;;;;;5048863;28;20466;-67
2022/03/04 08:31:10;;;;;;;43.67;19.93;;;1.50;99.90;;;;;;5048349;28;20482;-67
2022/03/04 08:33:41;;;;;;;45.50;20.57;;;1.50;99.90;;;;;;5048227;28;20834;-67
2022/03/04 08:36:10;;;;;;;43.87;19.00;;;1.50;99.90;;;;;;5048493;28;20472;-67
2022/03/04 08:38:39;;;;;;;42.83;19.40;;;1.50;99.90;;;;;;5048129;28;20842;-67
2022/03/04 08:41:08;;;;;;;45.13;21.10;;;1.40;99.90;;;;;;5049484;28;20985;-67
2022/03/04 08:43:36;;;;;;;51.00;20.70;;;1.40;99.90;;;;;;5048450;28;20463;-66
2022/03/04 08:46:05;;;;;;;48.83;20.93;;;1.40;99.90;;;;;;5050338;28;20478;-67
2022/03/04 08:48:33;;;;;;;58.37;23.60;;;1.40;99.90;;;;;;5049363;28;20805;-66
2022/03/04 08:51:02;;;;;;;50.87;20.87;;;1.40;99.90;;;;;;5047405;28;20588;-67
2022/03/04 08:53:30;;;;;;;48.60;21.50;;;1.40;99.90;;;;;;5048205;28;20502;-67
2022/03/04 08:55:58;;;;;;;55.93;21.80;;;1.40;99.90;;;;;;5043974;28;20459;-67
2022/03/04 08:58:28;;;;;;;54.73;22.47;;;1.50;99.90;;;;;;5049025;28;20536;-67
2022/03/04 09:00:56;;;;;;;47.13;22.23;;;1.50;99.90;;;;;;5044116;28;20471;-67
2022/03/04 09:03:25;;;;;;;48.17;21.50;;;1.60;99.90;;;;;;5049320;28;20474;-67
2022/03/04 09:05:53;;;;;;;53.67;22.23;;;1.70;99.90;;;;;;5054430;28;20468;-67
2022/03/04 09:08:21;;;;;;;44.97;19.70;;;1.60;99.90;;;;;;5049809;28;20464;-67
2022/03/04 09:10:50;;;;;;;43.00;20.80;;;1.50;99.90;;;;;;5052997;28;20990;-67
2022/03/04 09:13:18;;;;;;;45.93;21.93;;;1.50;99.90;;;;;;5050447;28;20465;-67
2022/03/04 09:15:48;;;;;;;43.93;20.83;;;1.50;99.90;;;;;;5050642;28;20483;-67
2022/03/04 09:18:16;;;;;;;40.90;20.80;;;1.50;99.90;;;;;;5051171;28;21783;-67
2022/03/04 09:20:44;;;;;;;48.63;22.30;;;1.70;99.90;;;;;;5051490;28;21074;-67
2022/03/04 09:23:13;;;;;;;43.60;22.10;;;1.80;99.90;;;;;;5049797;28;20462;-65
2022/03/04 09:25:41;;;;;;;44.13;21.03;;;1.70;99.90;;;;;;5050960;28;21044;-67
2022/03/04 09:28:09;;;;;;;41.63;20.67;;;1.70;99.90;;;;;;5051064;28;20479;-67
2022/03/04 09:30:37;;;;;;;42.07;20.53;;;1.70;99.90;;;;;;5049051;28;20464;-67
2022/03/04 09:33:06;;;;;;;44.47;21.40;;;1.70;99.90;;;;;;5047571;28;20469;-67
2022/03/04 09:35:34;;;;;;;42.33;20.10;;;1.80;99.90;;;;;;5053063;28;20887;-67
2022/03/04 09:38:03;;;;;;;39.27;19.73;;;1.80;99.90;;;;;;5050739;28;20478;-67
2022/03/04 09:40:33;;;;;;;33.93;18.00;;;1.80;99.90;;;;;;5051954;28;20475;-66
2022/03/04 09:43:02;;;;;;;38.60;17.90;;;1.90;99.90;;;;;;5052515;28;20538;-67
2022/03/04 09:45:30;;;;;;;35.53;18.83;;;2.00;99.90;;;;;;5052663;28;20807;-67
2022/03/04 09:48:00;;;;;;;28.20;16.70;;;2.00;99.90;;;;;;5048625;28;20509;-67
2022/03/04 09:50:30;;;;;;;32.47;17.77;;;2.00;99.90;;;;;;5052198;28;20461;-68
2022/03/04 09:53:01;;;;;;;26.80;16.00;;;2.10;99.90;;;;;;5051585;28;20967;-67
2022/03/04 09:55:29;;;;;;;21.10;13.23;;;2.20;99.90;;;;;;5052894;28;20512;-67
2022/03/04 09:57:57;;;;;;;16.23;10.27;;;2.20;99.90;;;;;;5051051;28;20547;-67
2022/03/04 10:00:26;;;;;;;17.83;10.43;;;2.10;99.90;;;;;;5052099;28;20487;-67
2022/03/04 10:02:54;;;;;;;16.63;10.67;;;2.20;99.90;;;;;;5052362;28;21007;-67
2022/03/04 10:05:23;;;;;;;14.17;9.10;;;2.20;99.90;;;;;;5052556;28;20496;-67
2022/03/04 10:07:53;;;;;;;13.57;9.03;;;2.40;99.90;;;;;;5050345;28;21065;-67
2022/03/04 10:10:22;;;;;;;13.87;8.93;;;2.50;99.90;;;;;;5050896;28;20463;-67
2022/03/04 10:12:53;;;;;;;10.97;7.93;;;2.60;99.90;;;;;;5052101;28;20478;-67
2022/03/04 10:15:21;;;;;;;12.57;7.93;;;2.60;99.90;;;;;;5051863;28;20479;-67
2022/03/04 10:18:01;;;;;;;11.33;7.20;;;2.70;99.90;;;;;;5049077;28;20510;-66
2022/03/04 10:20:37;;;;;;;10.93;7.53;;;2.70;99.90;;;;;;5048744;28;21055;-67
2022/03/04 10:23:28;;;;;;;11.17;7.20;;;3.00;99.90;;;;;;5068487;28;20576;-67
2022/03/04 10:25:58;;;;;;;9.60;7.27;;;3.10;99.90;;;;;;5069548;28;20472;-67
2022/03/04 10:28:29;;;;;;;11.30;7.70;;;3.30;99.90;;;;;;5069645;28;20479;-67
2022/03/04 10:30:59;;;;;;;8.83;6.47;;;3.20;99.90;;;;;;5068860;28;20465;-67
2022/03/04 10:33:47;;;;;;;11.67;7.30;;;3.10;99.90;;;;;;5066622;28;20797;-67
2022/03/04 10:36:16;;;;;;;10.17;7.40;;;3.00;99.90;;;;;;5069631;28;20494;-68
2022/03/04 10:38:46;;;;;;;11.33;7.43;;;2.80;99.90;;;;;;5068890;28;20469;-67
2022/03/04 10:41:26;;;;;;;10.70;7.60;;;2.90;99.90;;;;;;5070157;28;20487;-67
2022/03/04 10:43:55;;;;;;;11.50;8.23;;;2.90;99.90;;;;;;5070639;28;20511;-67
2022/03/04 10:46:24;;;;;;;11.03;7.07;;;2.90;99.90;;;;;;5071053;28;20491;-67
2022/03/04 10:48:54;;;;;;;10.73;7.47;;;2.90;99.90;;;;;;5067405;28;20475;-67
2022/03/04 10:51:36;;;;;;;11.53;7.13;;;3.00;99.90;;;;;;5070472;28;20911;-67
2022/03/04 10:54:16;;;;;;;11.27;7.27;;;3.10;99.90;;;;;;5070612;28;20464;-67
2022/03/04 10:56:54;;;;;;;11.37;7.40;;;3.20;99.90;;;;;;5068844;28;20470;-67
2022/03/04 10:59:23;;;;;;;10.47;6.40;;;3.30;99.90;;;;;;5067190;28;20473;-67
2022/03/04 11:01:55;;;;;;;10.87;6.77;;;3.20;99.90;;;;;;5070943;28;20839;-67
2022/03/04 11:04:24;;;;;;;9.93;6.70;;;3.40;99.90;;;;;;5069146;28;20560;-67
2022/03/04 11:06:52;;;;;;;10.30;7.17;;;3.50;99.90;;;;;;5068286;28;20469;-67
2022/03/04 11:09:24;;;;;;;11.70;7.80;;;3.70;99.90;;;;;;5068076;28;20469;-67
2022/03/04 11:11:53;;;;;;;10.30;6.97;;;4.40;99.90;;;;;;5069602;28;20477;-67
2022/03/04 11:14:22;;;;;;;9.40;6.83;;;5.00;99.90;;;;;;5072288;28;20473;-67
2022/03/04 11:16:51;;;;;;;8.63;6.53;;;5.40;99.90;;;;;;5069633;28;21008;-67
2022/03/04 11:19:19;;;;;;;9.23;6.47;;;5.60;99.90;;;;;;5052254;28;20266;-66
2022/03/04 11:21:48;;;;;;;10.07;6.87;;;6.10;99.90;;;;;;5057315;28;20536;-67
2022/03/04 11:24:16;;;;;;;8.77;6.07;;;6.40;99.90;;;;;;5071511;28;20222;-67
2022/03/04 11:26:46;;;;;;;9.87;6.57;;;6.50;99.90;;;;;;5071369;28;20262;-67
2022/03/04 11:29:32;;;;;;;8.73;6.43;;;6.70;99.90;;;;;;5068829;28;20314;-67
2022/03/04 11:32:01;;;;;;;8.00;6.73;;;7.00;99.90;;;;;;5067821;28;20639;-67
2022/03/04 11:34:35;;;;;;;9.40;6.77;;;7.00;99.90;;;;;;5071185;28;20238;-66
2022/03/04 11:37:04;;;;;;;7.97;6.17;;;7.30;99.90;;;;;;5070996;28;20318;-66
2022/03/04 11:40:04;;;;;;;7.67;6.07;;;7.40;99.90;;;;;;5070095;28;20239;-67
2022/03/04 11:42:41;;;;;;;8.07;5.67;;;7.40;99.90;;;;;;5069683;28;20620;-66
2022/03/04 11:45:11;;;;;;;7.97;5.97;;;7.50;99.90;;;;;;5068781;28;20258;-66
2022/03/04 11:47:44;;;;;;;7.97;5.37;;;7.70;99.90;;;;;;5070678;28;20631;-66
2022/03/04 11:50:31;;;;;;;7.53;6.03;;;7.80;99.90;;;;;;5068111;28;20288;-67
2022/03/04 11:53:22;;;;;;;9.07;5.73;;;7.90;99.90;;;;;;5068401;28;20269;-67
2022/03/04 11:56:19;;;;;;;7.97;5.47;;;8.10;99.90;;;;;;5066433;28;20277;-66
2022/03/04 11:59:10;;;;;;;7.30;5.30;;;7.90;99.90;;;;;;5035674;28;20239;-67
2022/03/04 12:01:39;;;;;;;6.67;5.23;;;7.30;99.90;;;;;;5048393;28;20315;-67
2022/03/04 12:04:10;;;;;;;8.20;5.50;;;7.20;99.90;;;;;;5050701;28;20696;-65
2022/03/04 12:06:38;;;;;;;7.07;5.53;;;7.20;99.90;;;;;;5044249;28;20232;-66
2022/03/04 12:09:25;;;;;;;7.67;5.43;;;6.90;99.90;;;;;;5051138;28;20625;-67
2022/03/04 12:12:13;;;;;;;8.07;5.43;;;6.90;99.90;;;;;;5047949;28;20259;-67
2022/03/04 12:14:48;;;;;;;8.13;5.53;;;7.00;99.90;;;;;;5044145;28;20332;-67
2022/03/04 12:17:18;;;;;;;7.70;5.20;;;7.10;99.90;;;;;;5045331;28;20227;-67
2022/03/04 12:19:48;;;;;;;6.53;5.07;;;7.10;99.90;;;;;;5050159;28;20262;-66
2022/03/04 12:22:17;;;;;;;6.03;5.13;;;7.30;99.90;;;;;;5050088;28;20240;-66
2022/03/04 12:24:54;;;;;;;6.80;5.40;;;7.40;99.90;;;;;;5049256;28;20227;-66
2022/03/04 12:27:36;;;;;;;8.93;5.33;;;7.40;99.90;;;;;;5047414;28;20656;-67
2022/03/04 12:30:18;;;;;;;7.67;5.23;;;7.40;99.90;;;;;;5046951;28;20715;-66
2022/03/04 12:32:51;;;;;;;7.70;4.97;;;7.50;99.90;;;;;;5047219;28;20266;-67
2022/03/04 12:35:21;;;;;;;6.53;4.70;;;7.60;99.90;;;;;;5046337;28;20255;-67
2022/03/04 12:37:50;;;;;;;7.07;4.97;;;7.40;99.90;;;;;;5047486;28;20251;-67
2022/03/04 12:40:22;;;;;;;8.23;4.93;;;7.50;99.90;;;;;;5038333;28;20223;-66
2022/03/04 12:42:54;;;;;;;6.97;4.90;;;7.50;99.90;;;;;;5037907;28;20248;-66
2022/03/04 12:45:28;;;;;;;6.60;4.87;;;7.50;99.90;;;;;;5036429;28;20683;-67
2022/03/04 12:47:57;;;;;;;6.63;4.63;;;7.40;99.90;;;;;;5036155;28;20278;-67
2022/03/04 12:50:29;;;;;;;6.83;4.53;;;7.60;99.90;;;;;;5037020;28;20229;-66
2022/03/04 12:52:57;;;;;;;9.07;5.23;;;7.60;99.90;;;;;;5035554;28;20252;-66